Terminal Aerodrome Forecast
Issued by NWS Paducah, KY

Home | Current Version | Previous Version | Text Only | Print | Product List | Glossary Off
Versions: 1 2 3 4 5 6 7 8 9 10 11 12 13 14 15 16 17 18 19 20 21 22

307
FTUS43 KPAH 112339
TAFPAH
TAF
KPAH 112339Z 1200/1224 05006KT P6SM FEW090 BKN250
     FM120600 08003KT P6SM BKN060 OVC100
     FM121030 05004KT P6SM OVC045
      TEMPO 1211/1213 -SN
     FM121800 34006KT P6SM OVC022=

USA.gov is the U.S. government's official web portal to all federal, state and local government web resources and services.